Time;durP1;ratioP1;P1;durP2;ratioP2;P2;SDS_P1;SDS_P2;PMS_P1;PMS_P2;Temp;Humidity;BMP_temperature;BMP_pressure;BME280_temperature;BME280_humidity;BME280_pressure;Samples;Min_cycle;Max_cycle;Signal;HPM_P1;HPM_P2
2023/05/07 00:00:40;;;;;;;3.22;2.83;;;23.10;50.80;;;;;;5086079;28;20034;-62
2023/05/07 00:03:06;;;;;;;3.42;2.90;;;23.10;50.80;;;;;;5087450;28;20406;-62
2023/05/07 00:05:32;;;;;;;4.13;3.08;;;23.10;50.80;;;;;;5086481;28;20055;-60
2023/05/07 00:07:58;;;;;;;3.47;2.80;;;23.10;50.80;;;;;;5068387;28;20129;-63
2023/05/07 00:10:24;;;;;;;4.13;2.95;;;23.10;50.80;;;;;;5087423;28;20054;-60
2023/05/07 00:12:49;;;;;;;3.63;3.00;;;23.10;50.80;;;;;;5087605;28;20032;-60
2023/05/07 00:15:15;;;;;;;3.33;2.72;;;23.10;50.90;;;;;;5086486;28;20028;-62
2023/05/07 00:17:41;;;;;;;3.00;2.53;;;23.10;50.90;;;;;;5087220;28;21605;-62
2023/05/07 00:20:07;;;;;;;3.65;2.72;;;23.10;50.90;;;;;;5069631;28;20026;-60
2023/05/07 00:22:33;;;;;;;3.75;2.78;;;23.10;51.00;;;;;;5086238;28;20035;-61
2023/05/07 00:25:00;;;;;;;2.83;2.17;;;23.10;51.00;;;;;;5087727;28;20032;-61
2023/05/07 00:27:25;;;;;;;3.70;2.63;;;23.00;51.00;;;;;;5087645;28;20431;-60
2023/05/07 00:29:51;;;;;;;2.55;2.20;;;23.10;51.10;;;;;;5087565;28;20126;-63
2023/05/07 00:32:17;;;;;;;3.45;2.70;;;23.00;51.10;;;;;;5086975;28;20483;-61
2023/05/07 00:34:43;;;;;;;3.42;2.45;;;23.00;51.10;;;;;;5087009;28;20059;-61
2023/05/07 00:37:09;;;;;;;3.75;2.90;;;23.00;51.10;;;;;;5068681;28;20024;-62
2023/05/07 00:39:35;;;;;;;2.90;2.60;;;23.00;51.10;;;;;;5086315;28;20333;-62
2023/05/07 00:42:02;;;;;;;3.53;2.45;;;23.00;51.00;;;;;;5086512;28;20035;-63
2023/05/07 00:44:29;;;;;;;3.45;2.58;;;23.10;51.00;;;;;;5067931;28;20059;-61
2023/05/07 00:47:01;;;;;;;3.28;2.80;;;23.00;50.90;;;;;;5068869;28;20055;-62
2023/05/07 00:49:37;;;;;;;3.08;2.50;;;23.00;50.90;;;;;;5067191;28;20039;-62
2023/05/07 00:52:03;;;;;;;2.83;2.50;;;23.00;50.90;;;;;;5068878;28;20040;-62
2023/05/07 00:54:29;;;;;;;3.20;2.50;;;23.00;50.90;;;;;;5085793;28;20392;-62
2023/05/07 00:56:55;;;;;;;2.65;2.38;;;23.00;50.90;;;;;;5068709;28;20091;-63
2023/05/07 00:59:21;;;;;;;3.65;2.40;;;23.00;50.80;;;;;;5069238;28;20119;-61
2023/05/07 01:01:47;;;;;;;2.60;2.22;;;23.00;50.80;;;;;;5086453;28;20161;-59
2023/05/07 01:04:13;;;;;;;2.60;2.20;;;23.00;50.80;;;;;;5067768;28;20482;-60
2023/05/07 01:06:40;;;;;;;2.33;1.98;;;23.00;50.80;;;;;;5086028;28;20067;-62
2023/05/07 01:09:07;;;;;;;2.92;2.28;;;23.00;50.80;;;;;;5068259;28;20439;-59
2023/05/07 01:11:33;;;;;;;3.03;2.20;;;23.00;50.80;;;;;;5084001;28;20028;-61
2023/05/07 01:13:59;;;;;;;3.03;2.60;;;23.00;50.70;;;;;;5088322;28;20400;-62
2023/05/07 01:16:26;;;;;;;3.15;2.38;;;23.00;50.70;;;;;;5085137;28;20163;-60
2023/05/07 01:18:52;;;;;;;3.63;2.40;;;23.00;50.70;;;;;;5086253;28;20081;-61
2023/05/07 01:21:22;;;;;;;3.70;2.40;;;23.00;50.60;;;;;;5068238;28;20388;-61
2023/05/07 01:23:48;;;;;;;2.60;1.95;;;23.00;50.60;;;;;;5068443;28;20020;-61
2023/05/07 01:26:14;;;;;;;4.00;2.30;;;22.90;50.60;;;;;;5068672;28;20116;-64
2023/05/07 01:28:41;;;;;;;2.45;2.00;;;22.90;50.50;;;;;;5065610;28;20481;-62
2023/05/07 01:31:09;;;;;;;2.67;2.10;;;22.90;50.50;;;;;;5067381;28;20032;-61
2023/05/07 01:33:37;;;;;;;3.20;2.38;;;22.90;50.50;;;;;;5068341;28;20035;-60
2023/05/07 01:36:07;;;;;;;2.70;2.10;;;22.90;50.50;;;;;;5065410;28;20047;-60
2023/05/07 01:38:33;;;;;;;2.30;2.08;;;22.90;50.50;;;;;;5065001;28;20017;-62
2023/05/07 01:40:59;;;;;;;3.45;2.00;;;22.90;50.50;;;;;;5067500;28;20365;-60
2023/05/07 01:43:25;;;;;;;3.08;2.08;;;22.90;50.50;;;;;;5064770;28;20123;-63
2023/05/07 01:45:52;;;;;;;2.80;2.22;;;22.90;51.10;;;;;;5082985;28;20052;-62
2023/05/07 01:48:19;;;;;;;3.42;2.60;;;22.90;50.50;;;;;;5086692;28;20080;-61
2023/05/07 01:50:45;;;;;;;3.42;2.47;;;22.90;50.50;;;;;;5067418;28;20031;-63
2023/05/07 01:53:11;;;;;;;2.40;2.00;;;22.90;50.50;;;;;;5084758;28;20058;-60
2023/05/07 01:55:36;;;;;;;2.78;2.33;;;22.90;50.50;;;;;;5067600;28;20035;-60
2023/05/07 01:58:04;;;;;;;2.10;1.90;;;22.90;50.50;;;;;;5064996;28;20074;-61
2023/05/07 02:00:30;;;;;;;4.18;2.30;;;22.90;50.50;;;;;;5065921;28;20032;-60
2023/05/07 02:02:56;;;;;;;2.45;1.85;;;22.90;50.50;;;;;;5065572;28;20020;-61
2023/05/07 02:05:39;;;;;;;2.72;1.90;;;22.90;50.50;;;;;;5067175;28;20023;-61
2023/05/07 02:08:12;;;;;;;2.35;2.00;;;22.90;50.50;;;;;;5063598;28;20042;-63
2023/05/07 02:10:39;;;;;;;2.05;1.70;;;22.90;50.50;;;;;;5082817;28;20107;-59
2023/05/07 02:13:06;;;;;;;2.40;1.83;;;22.80;50.40;;;;;;5067914;28;20056;-61
2023/05/07 02:15:32;;;;;;;2.55;1.85;;;22.80;50.40;;;;;;5068249;28;20118;-61
2023/05/07 02:18:07;;;;;;;3.20;1.70;;;22.80;50.40;;;;;;5073425;28;20161;-60
2023/05/07 02:20:33;;;;;;;2.60;1.88;;;22.80;50.50;;;;;;5067803;28;20107;-63
2023/05/07 02:23:00;;;;;;;2.10;1.83;;;22.80;50.50;;;;;;5067096;28;20123;-62
2023/05/07 02:25:27;;;;;;;2.33;1.70;;;22.90;50.50;;;;;;5064999;28;20123;-62
2023/05/07 02:27:53;;;;;;;2.00;1.65;;;22.80;50.50;;;;;;5066975;28;20024;-63
2023/05/07 02:30:23;;;;;;;2.30;1.88;;;22.80;50.50;;;;;;5067969;28;21586;-63
2023/05/07 02:32:52;;;;;;;2.30;1.80;;;22.80;50.50;;;;;;5065730;28;20301;-63
2023/05/07 02:35:18;;;;;;;3.55;1.52;;;22.80;50.50;;;;;;5048973;28;20068;-63
2023/05/07 02:37:44;;;;;;;2.28;1.52;;;22.80;50.50;;;;;;5067056;28;20020;-61
2023/05/07 02:40:11;;;;;;;2.45;1.73;;;22.80;50.50;;;;;;5066856;28;20027;-64
2023/05/07 02:42:36;;;;;;;2.78;1.90;;;22.80;50.50;;;;;;5085419;28;20359;-62
2023/05/07 02:45:02;;;;;;;2.05;1.38;;;22.80;50.50;;;;;;5047276;28;20039;-63
2023/05/07 02:47:30;;;;;;;3.83;1.50;;;22.80;50.50;;;;;;5067362;28;20183;-61
2023/05/07 02:49:56;;;;;;;2.85;1.50;;;22.80;50.50;;;;;;5066867;28;20024;-59
2023/05/07 02:52:22;;;;;;;2.83;1.98;;;22.80;50.50;;;;;;5065764;28;20039;-63
2023/05/07 02:54:48;;;;;;;3.92;1.52;;;22.80;50.50;;;;;;5084204;28;20095;-61
2023/05/07 02:57:14;;;;;;;2.28;1.80;;;22.70;50.50;;;;;;5067465;28;20088;-61
2023/05/07 02:59:41;;;;;;;2.05;1.67;;;22.80;50.50;;;;;;5067418;28;20048;-63
2023/05/07 03:02:07;;;;;;;2.53;1.60;;;22.80;50.60;;;;;;5052847;28;20085;-61
2023/05/07 03:04:33;;;;;;;2.15;1.60;;;22.80;50.60;;;;;;5066208;28;20100;-64
2023/05/07 03:06:59;;;;;;;2.03;1.70;;;22.70;50.50;;;;;;5063908;28;20031;-61
2023/05/07 03:09:24;;;;;;;2.47;1.45;;;22.70;50.50;;;;;;5067764;28;20025;-61
2023/05/07 03:11:51;;;;;;;1.90;1.50;;;22.80;50.60;;;;;;5067013;28;20163;-61
2023/05/07 03:14:17;;;;;;;1.95;1.38;;;22.70;50.50;;;;;;5086290;28;20036;-61
2023/05/07 03:16:43;;;;;;;1.70;1.40;;;22.80;50.60;;;;;;5086101;28;20082;-62
2023/05/07 03:19:08;;;;;;;3.40;1.58;;;22.70;50.50;;;;;;5054140;28;20428;-61
2023/05/07 03:21:34;;;;;;;2.28;1.85;;;22.70;50.50;;;;;;5052099;28;20043;-62
2023/05/07 03:24:00;;;;;;;2.65;1.60;;;22.70;50.50;;;;;;5071220;28;20123;-60
2023/05/07 03:26:26;;;;;;;1.88;1.60;;;22.70;50.50;;;;;;5069643;28;20340;-63
2023/05/07 03:28:52;;;;;;;1.60;1.30;;;22.70;50.50;;;;;;5070243;28;20021;-60
2023/05/07 03:31:18;;;;;;;2.30;1.42;;;22.70;50.40;;;;;;5070215;28;20036;-62
2023/05/07 03:33:56;;;;;;;1.65;1.40;;;22.70;50.40;;;;;;5069169;28;20016;-62
2023/05/07 03:36:23;;;;;;;1.95;1.40;;;22.70;50.40;;;;;;5068258;28;20103;-62
2023/05/07 03:38:50;;;;;;;3.97;1.85;;;22.70;50.40;;;;;;5070168;28;20369;-62
2023/05/07 03:41:20;;;;;;;2.70;1.70;;;22.70;50.40;;;;;;5069077;28;20036;-63
2023/05/07 03:43:46;;;;;;;1.70;1.40;;;22.70;50.40;;;;;;5069291;28;20105;-60
2023/05/07 03:46:12;;;;;;;2.05;1.60;;;22.70;50.40;;;;;;5070292;28;20040;-62
2023/05/07 03:48:38;;;;;;;1.85;1.55;;;22.70;50.40;;;;;;5086936;28;20028;-62
2023/05/07 03:51:05;;;;;;;2.00;1.45;;;22.70;50.40;;;;;;5070672;28;20320;-62
2023/05/07 03:53:32;;;;;;;1.92;1.40;;;22.70;50.40;;;;;;5087981;28;20080;-63
2023/05/07 03:55:58;;;;;;;1.90;1.50;;;22.70;50.40;;;;;;5069954;28;20042;-63
2023/05/07 03:58:24;;;;;;;2.17;1.60;;;22.60;50.30;;;;;;5069746;28;20459;-64
2023/05/07 04:00:52;;;;;;;2.88;1.75;;;22.70;50.40;;;;;;5069901;28;20050;-61
2023/05/07 04:03:24;;;;;;;2.63;1.65;;;22.70;50.40;;;;;;5084809;28;20411;-64
2023/05/07 04:05:50;;;;;;;2.42;1.40;;;22.70;50.40;;;;;;5070142;28;20034;-62
2023/05/07 04:08:16;;;;;;;3.95;1.70;;;22.60;50.30;;;;;;5068911;28;20031;-63
2023/05/07 04:10:46;;;;;;;3.33;1.77;;;22.70;51.00;;;;;;5069649;28;20028;-62
2023/05/07 04:13:13;;;;;;;2.40;1.70;;;22.60;50.30;;;;;;5067860;28;20108;-61
2023/05/07 04:15:39;;;;;;;2.78;1.50;;;22.70;50.40;;;;;;5068509;28;20365;-61
2023/05/07 04:18:08;;;;;;;1.77;1.40;;;22.70;50.40;;;;;;5069209;28;20032;-59
2023/05/07 04:20:36;;;;;;;1.90;1.50;;;22.60;50.40;;;;;;5067474;28;20036;-61
2023/05/07 04:23:04;;;;;;;1.98;1.27;;;22.60;50.40;;;;;;5070589;28;20071;-62
2023/05/07 04:25:30;;;;;;;1.98;1.27;;;22.60;50.40;;;;;;5086651;28;20067;-61
2023/05/07 04:28:04;;;;;;;2.00;1.60;;;22.60;50.40;;;;;;5069457;28;20067;-61
2023/05/07 04:30:30;;;;;;;2.00;1.60;;;22.60;50.40;;;;;;5068681;28;20021;-60
2023/05/07 04:32:57;;;;;;;2.00;1.50;;;22.60;50.40;;;;;;5068744;28;20452;-62
2023/05/07 04:35:25;;;;;;;2.67;1.70;;;22.60;50.50;;;;;;5067279;28;20121;-60
2023/05/07 04:37:51;;;;;;;1.63;1.30;;;22.60;50.50;;;;;;5069020;28;20418;-62
2023/05/07 04:40:17;;;;;;;1.48;1.35;;;22.60;50.50;;;;;;5067114;28;20325;-61
2023/05/07 04:42:43;;;;;;;1.75;1.50;;;22.60;50.50;;;;;;5051690;28;20024;-61
2023/05/07 04:45:10;;;;;;;1.45;1.30;;;22.60;50.50;;;;;;5060041;28;20196;-62
2023/05/07 04:47:38;;;;;;;1.95;1.40;;;22.60;50.50;;;;;;5045424;28;20083;-62
2023/05/07 04:50:04;;;;;;;2.30;1.50;;;22.60;50.50;;;;;;5044975;28;20352;-61
2023/05/07 04:52:31;;;;;;;1.88;1.20;;;22.60;50.60;;;;;;5028622;28;20116;-62
2023/05/07 04:55:00;;;;;;;1.90;1.30;;;22.60;50.60;;;;;;5044049;28;20080;-62
2023/05/07 04:57:27;;;;;;;1.95;1.35;;;22.60;50.60;;;;;;5044981;28;20337;-61
2023/05/07 04:59:53;;;;;;;2.05;1.48;;;22.60;50.60;;;;;;5044118;28;20025;-59
2023/05/07 05:02:19;;;;;;;2.65;1.50;;;22.60;50.60;;;;;;5043730;28;20029;-60
2023/05/07 05:04:45;;;;;;;2.03;1.42;;;22.60;50.60;;;;;;5046936;28;20131;-63
2023/05/07 05:07:11;;;;;;;1.52;1.15;;;22.60;50.60;;;;;;5043992;28;20211;-61
2023/05/07 05:09:37;;;;;;;2.45;1.33;;;22.60;50.60;;;;;;5029144;28;20017;-63
2023/05/07 05:12:03;;;;;;;1.45;1.20;;;22.60;50.70;;;;;;5044942;28;20450;-65
2023/05/07 05:14:29;;;;;;;1.90;1.73;;;22.60;50.70;;;;;;5045302;28;20094;-60
2023/05/07 05:16:55;;;;;;;1.50;1.30;;;22.60;50.70;;;;;;5028348;28;20159;-60
2023/05/07 05:19:21;;;;;;;1.63;1.38;;;22.60;50.70;;;;;;5045306;28;20036;-62
2023/05/07 05:21:47;;;;;;;1.30;1.20;;;22.60;50.70;;;;;;5045231;28;20048;-59
2023/05/07 05:24:13;;;;;;;2.00;1.40;;;22.60;50.70;;;;;;5044356;28;20171;-60
2023/05/07 05:26:39;;;;;;;1.73;1.13;;;22.60;50.80;;;;;;5044030;28;20061;-60
2023/05/07 05:29:05;;;;;;;1.75;1.30;;;22.60;50.80;;;;;;5044624;28;20122;-62
2023/05/07 05:31:31;;;;;;;1.35;1.20;;;22.60;50.80;;;;;;5027092;28;20036;-60
2023/05/07 05:33:57;;;;;;;2.72;1.38;;;22.60;50.80;;;;;;5044827;28;20104;-60
2023/05/07 05:36:23;;;;;;;1.17;1.08;;;22.60;50.80;;;;;;5044257;28;20051;-62
2023/05/07 05:38:52;;;;;;;1.60;1.00;;;22.60;50.80;;;;;;5043813;28;20101;-61
2023/05/07 05:41:18;;;;;;;1.40;1.30;;;22.60;50.80;;;;;;5044300;28;20039;-62
2023/05/07 05:43:44;;;;;;;1.13;0.98;;;22.60;50.90;;;;;;5044543;28;20043;-61
2023/05/07 05:46:11;;;;;;;2.33;1.20;;;22.60;50.90;;;;;;5044639;28;20118;-59
2023/05/07 05:48:37;;;;;;;1.50;1.10;;;22.60;50.90;;;;;;5044339;28;20025;-61
2023/05/07 05:51:04;;;;;;;1.67;1.00;;;22.60;50.90;;;;;;5042952;28;20045;-60
2023/05/07 05:53:30;;;;;;;1.13;1.00;;;22.60;51.00;;;;;;5044227;28;20431;-61
2023/05/07 05:55:56;;;;;;;1.92;1.20;;;22.60;51.10;;;;;;5044332;28;20402;-62
2023/05/07 05:58:22;;;;;;;1.20;1.08;;;22.50;51.00;;;;;;5044358;28;20120;-60
2023/05/07 06:00:54;;;;;;;2.22;1.20;;;22.60;51.10;;;;;;5044063;28;20029;-61
2023/05/07 06:03:23;;;;;;;1.52;1.00;;;22.60;51.10;;;;;;5041856;28;20052;-61
2023/05/07 06:05:50;;;;;;;2.92;1.45;;;22.60;51.10;;;;;;5044837;28;20033;-61
2023/05/07 06:08:17;;;;;;;1.75;1.27;;;22.60;51.10;;;;;;5044656;28;20052;-62
2023/05/07 06:10:42;;;;;;;1.80;1.20;;;22.60;51.10;;;;;;5043984;28;20029;-60
2023/05/07 06:13:08;;;;;;;1.23;1.05;;;22.60;51.10;;;;;;5045695;28;20091;-60
2023/05/07 06:15:36;;;;;;;1.40;1.05;;;22.60;51.10;;;;;;5044143;28;20033;-60
2023/05/07 06:18:07;;;;;;;1.27;1.00;;;22.60;51.10;;;;;;5042441;28;20161;-60
2023/05/07 06:20:33;;;;;;;1.45;1.10;;;22.50;51.10;;;;;;5044287;28;20035;-64
2023/05/07 06:23:01;;;;;;;1.30;1.20;;;22.60;51.20;;;;;;5025625;28;20021;-59
2023/05/07 06:25:27;;;;;;;3.20;1.10;;;22.60;51.20;;;;;;5044338;28;20131;-59
2023/05/07 06:27:53;;;;;;;2.25;1.17;;;22.60;51.20;;;;;;5044590;28;20493;-61
2023/05/07 06:30:19;;;;;;;1.77;1.30;;;22.50;51.20;;;;;;5045318;28;20120;-63
2023/05/07 06:32:45;;;;;;;1.55;1.13;;;22.60;51.30;;;;;;5043713;28;20047;-62
2023/05/07 06:35:12;;;;;;;1.30;1.05;;;22.60;51.30;;;;;;5044216;28;20090;-60
2023/05/07 06:37:42;;;;;;;1.42;1.00;;;22.60;51.30;;;;;;5044126;28;20060;-61
2023/05/07 06:40:11;;;;;;;2.15;1.10;;;22.60;51.30;;;;;;5043240;28;20025;-63
2023/05/07 06:42:39;;;;;;;1.77;1.20;;;22.60;51.30;;;;;;5044918;28;20061;-63
2023/05/07 06:45:25;;;;;;;2.95;1.35;;;22.60;51.30;;;;;;5049890;28;20078;-63
2023/05/07 06:47:53;;;;;;;1.40;1.05;;;22.60;51.30;;;;;;5063816;28;20095;-60
2023/05/07 06:50:19;;;;;;;1.52;1.20;;;22.60;51.40;;;;;;5066362;28;20123;-62
2023/05/07 06:52:45;;;;;;;1.85;1.50;;;22.60;51.40;;;;;;5069376;28;20040;-59
2023/05/07 06:55:11;;;;;;;1.90;1.20;;;22.60;51.30;;;;;;5069594;28;20081;-61
2023/05/07 06:57:38;;;;;;;2.50;1.50;;;22.60;51.30;;;;;;5068726;28;20398;-61
2023/05/07 07:00:06;;;;;;;1.52;1.40;;;22.60;51.30;;;;;;5069086;28;20138;-61
2023/05/07 07:02:34;;;;;;;2.03;1.38;;;22.70;51.30;;;;;;5067376;28;20083;-64
2023/05/07 07:05:00;;;;;;;2.38;1.63;;;22.60;51.30;;;;;;5087915;28;20103;-61
2023/05/07 07:07:26;;;;;;;1.67;1.52;;;22.70;51.30;;;;;;5069199;28;20107;-63
2023/05/07 07:09:52;;;;;;;2.03;1.80;;;22.70;51.30;;;;;;5068891;28;20327;-61
2023/05/07 07:12:18;;;;;;;3.63;2.47;;;22.70;51.30;;;;;;5077625;28;20131;-62
2023/05/07 07:14:45;;;;;;;3.90;2.92;;;22.70;51.20;;;;;;5088513;28;20043;-60
2023/05/07 07:17:12;;;;;;;3.53;2.90;;;22.70;51.20;;;;;;5073608;28;20395;-62
2023/05/07 07:19:39;;;;;;;4.63;3.78;;;22.70;51.20;;;;;;5088490;28;20030;-62
2023/05/07 07:22:05;;;;;;;6.60;4.90;;;22.70;51.20;;;;;;5085894;28;20104;-60
2023/05/07 07:24:32;;;;;;;6.32;5.07;;;22.70;51.20;;;;;;5069909;28;20384;-61
2023/05/07 07:27:01;;;;;;;5.70;5.05;;;22.70;51.20;;;;;;5068905;28;20319;-61
2023/05/07 07:29:27;;;;;;;6.72;5.22;;;22.70;51.20;;;;;;5052321;28;20020;-61
2023/05/07 07:31:54;;;;;;;7.85;6.63;;;22.70;51.30;;;;;;5088608;28;20083;-63
2023/05/07 07:34:26;;;;;;;10.18;7.68;;;22.70;51.30;;;;;;5066197;28;20329;-63
2023/05/07 07:36:52;;;;;;;9.50;8.35;;;22.70;51.30;;;;;;5056287;28;20390;-63
2023/05/07 07:39:19;;;;;;;10.02;8.88;;;22.70;51.40;;;;;;5068628;28;20047;-62
2023/05/07 07:41:46;;;;;;;10.38;9.18;;;22.70;51.40;;;;;;5067413;28;20083;-62
2023/05/07 07:44:13;;;;;;;9.45;8.45;;;22.70;51.50;;;;;;5070759;28;20365;-60
2023/05/07 07:46:40;;;;;;;9.15;8.25;;;22.80;51.60;;;;;;5055439;28;20028;-62
2023/05/07 07:49:07;;;;;;;10.02;8.35;;;22.80;51.50;;;;;;5073200;28;20084;-62
2023/05/07 07:51:33;;;;;;;9.88;8.68;;;22.80;51.50;;;;;;5072729;28;20028;-63
2023/05/07 07:54:02;;;;;;;9.65;8.20;;;22.80;51.50;;;;;;5072997;28;20051;-61
2023/05/07 07:56:28;;;;;;;9.25;7.88;;;22.80;51.50;;;;;;5063970;28;20472;-62
2023/05/07 07:58:54;;;;;;;9.60;8.45;;;22.80;51.40;;;;;;5049574;28;20024;-61
2023/05/07 08:01:20;;;;;;;8.85;7.95;;;22.80;51.30;;;;;;5068249;28;20036;-62
2023/05/07 08:03:47;;;;;;;9.73;8.10;;;22.80;51.30;;;;;;5050521;28;20108;-61
2023/05/07 08:06:13;;;;;;;9.73;8.48;;;22.80;51.30;;;;;;5067245;28;20020;-59
2023/05/07 08:08:39;;;;;;;9.13;7.15;;;22.80;51.30;;;;;;5067707;28;20405;-59
2023/05/07 08:11:06;;;;;;;9.10;7.65;;;22.80;51.20;;;;;;5067742;28;20035;-61
2023/05/07 08:13:34;;;;;;;9.75;7.10;;;22.90;51.20;;;;;;5083906;28;20065;-62
2023/05/07 08:16:00;;;;;;;7.72;6.78;;;22.90;51.20;;;;;;5064835;28;20043;-60
2023/05/07 08:18:28;;;;;;;7.97;6.88;;;22.90;51.20;;;;;;5067047;28;20048;-60
2023/05/07 08:20:55;;;;;;;8.23;7.13;;;22.90;51.10;;;;;;5068226;28;20076;-60
2023/05/07 08:23:23;;;;;;;7.53;6.60;;;22.90;51.10;;;;;;5067080;28;20111;-61
2023/05/07 08:25:51;;;;;;;8.45;6.95;;;22.90;51.00;;;;;;5068374;28;20138;-62
2023/05/07 08:28:17;;;;;;;7.57;6.60;;;22.90;51.00;;;;;;5049668;28;20037;-60
2023/05/07 08:30:43;;;;;;;7.50;6.55;;;22.90;51.00;;;;;;5064045;28;20032;-61
2023/05/07 08:33:09;;;;;;;7.95;6.93;;;22.90;50.90;;;;;;5063478;28;20098;-64
2023/05/07 08:35:35;;;;;;;10.30;5.72;;;23.00;51.00;;;;;;5083713;28;20137;-61
2023/05/07 08:38:01;;;;;;;8.68;7.55;;;22.90;50.70;;;;;;5066247;28;20138;-61
2023/05/07 08:40:28;;;;;;;13.15;9.48;;;22.90;50.60;;;;;;5065511;28;20418;-62
2023/05/07 08:42:57;;;;;;;16.35;12.23;;;22.90;50.80;;;;;;5067529;28;20111;-60
2023/05/07 08:45:26;;;;;;;21.48;15.77;;;22.90;51.20;;;;;;5071675;28;20051;-56
2023/05/07 08:48:05;;;;;;;23.27;19.50;;;23.00;52.10;;;;;;5071569;28;20038;-59
2023/05/07 08:50:36;;;;;;;28.10;20.20;;;23.00;53.30;;;;;;5070435;28;20051;-60
2023/05/07 08:53:03;;;;;;;25.27;21.00;;;23.00;53.90;;;;;;5071955;28;20040;-58
2023/05/07 08:55:30;;;;;;;23.98;19.77;;;23.10;54.40;;;;;;5071351;28;20040;-60
2023/05/07 08:57:56;;;;;;;24.25;19.08;;;23.10;54.70;;;;;;5069013;28;20069;-62
2023/05/07 09:00:22;;;;;;;25.08;20.63;;;23.10;54.70;;;;;;5071427;28;20031;-63
2023/05/07 09:02:50;;;;;;;22.55;19.35;;;23.10;54.40;;;;;;5069069;28;20464;-54
2023/05/07 09:05:16;;;;;;;23.42;19.80;;;23.10;54.80;;;;;;5071351;28;20103;-60
2023/05/07 09:07:42;;;;;;;21.38;19.08;;;23.20;54.00;;;;;;5071538;28;20047;-61
2023/05/07 09:10:10;;;;;;;23.02;19.25;;;23.20;54.00;;;;;;5071150;28;20020;-61
2023/05/07 09:12:39;;;;;;;22.88;20.45;;;23.20;53.80;;;;;;5070716;28;20036;-62
2023/05/07 09:15:07;;;;;;;26.73;21.67;;;23.20;54.30;;;;;;5067949;28;20117;-62
2023/05/07 09:17:33;;;;;;;29.35;23.88;;;23.20;55.10;;;;;;5070421;28;20425;-58
2023/05/07 09:20:06;;;;;;;29.90;25.48;;;23.20;55.80;;;;;;5071761;28;20024;-62
2023/05/07 09:22:33;;;;;;;38.88;28.83;;;23.30;56.30;;;;;;5070747;28;20162;-60
2023/05/07 09:25:04;;;;;;;38.13;29.85;;;23.30;56.90;;;;;;5054242;28;20440;-60
2023/05/07 09:27:31;;;;;;;36.97;31.17;;;23.40;57.40;;;;;;5071107;28;20454;-60
2023/05/07 09:29:58;;;;;;;38.25;30.15;;;23.40;57.70;;;;;;5069738;28;20024;-58
2023/05/07 09:32:25;;;;;;;36.38;31.35;;;23.40;57.80;;;;;;5053614;28;20051;-59
2023/05/07 09:34:51;;;;;;;37.53;31.13;;;23.40;58.00;;;;;;5069572;28;20464;-60
2023/05/07 09:37:21;;;;;;;39.35;32.35;;;23.50;58.10;;;;;;5070958;28;20036;-57
2023/05/07 09:39:49;;;;;;;37.88;31.98;;;23.50;58.30;;;;;;5087751;28;20462;-61
2023/05/07 09:42:24;;;;;;;40.70;32.58;;;23.50;58.50;;;;;;5070533;28;20027;-62
2023/05/07 09:44:51;;;;;;;41.85;33.13;;;23.60;58.50;;;;;;5070429;28;20028;-61
2023/05/07 09:47:23;;;;;;;38.03;30.35;;;23.50;58.20;;;;;;5068472;28;20089;-55
2023/05/07 09:49:56;;;;;;;32.75;27.92;;;23.60;57.80;;;;;;5070290;28;20020;-62
2023/05/07 09:52:23;;;;;;;23.95;19.33;;;23.60;57.30;;;;;;5070037;28;20116;-62
2023/05/07 09:54:55;;;;;;;15.77;10.90;;;23.60;56.40;;;;;;5069709;28;20020;-62
2023/05/07 09:57:25;;;;;;;8.70;7.15;;;23.60;54.60;;;;;;5050769;28;20052;-62
2023/05/07 09:59:58;;;;;;;11.57;9.57;;;23.60;53.40;;;;;;5063515;28;20047;-61
2023/05/07 10:02:30;;;;;;;15.45;12.88;;;23.60;53.20;;;;;;5068610;28;20036;-61
2023/05/07 10:04:57;;;;;;;18.08;15.93;;;23.60;53.40;;;;;;5064118;28;20058;-64
2023/05/07 10:07:29;;;;;;;21.02;18.52;;;23.60;53.60;;;;;;5070590;28;20093;-60
2023/05/07 10:10:02;;;;;;;24.50;20.65;;;23.60;53.70;;;;;;5071403;28;20016;-56
2023/05/07 10:12:38;;;;;;;23.67;20.65;;;23.60;53.80;;;;;;5064275;28;20111;-59
2023/05/07 10:15:10;;;;;;;24.33;20.73;;;23.60;53.80;;;;;;5070507;28;20085;-60
2023/05/07 10:17:39;;;;;;;23.35;20.20;;;23.70;53.90;;;;;;5068805;28;20051;-59
2023/05/07 10:20:08;;;;;;;22.95;20.63;;;23.70;53.80;;;;;;5069496;28;20398;-63
2023/05/07 10:22:42;;;;;;;23.30;20.27;;;23.70;53.80;;;;;;5065661;28;20024;-61
2023/05/07 10:25:37;;;;;;;25.95;22.23;;;23.70;53.50;;;;;;5065230;28;20116;-60
2023/05/07 10:28:12;;;;;;;26.00;23.17;;;23.70;53.40;;;;;;5067585;28;20035;-62
2023/05/07 10:30:47;;;;;;;25.23;22.45;;;23.80;53.30;;;;;;5051911;28;20297;-59
2023/05/07 10:33:16;;;;;;;25.98;21.80;;;23.80;53.20;;;;;;5068562;28;20180;-59
2023/05/07 10:35:46;;;;;;;24.00;21.50;;;23.80;53.20;;;;;;5069128;28;20028;-63
2023/05/07 10:38:13;;;;;;;23.45;20.85;;;23.80;53.00;;;;;;5069880;28;20112;-62
2023/05/07 10:40:41;;;;;;;22.30;19.38;;;23.80;52.90;;;;;;5069025;28;20051;-60
2023/05/07 10:43:07;;;;;;;23.75;20.48;;;23.80;52.80;;;;;;5070227;28;20185;-60
2023/05/07 10:45:39;;;;;;;22.77;20.13;;;23.80;52.60;;;;;;5058788;28;20106;-62
2023/05/07 10:48:13;;;;;;;21.42;19.10;;;23.80;52.50;;;;;;5045754;28;20025;-61
2023/05/07 10:50:43;;;;;;;22.58;18.98;;;23.90;52.50;;;;;;5044309;28;20086;-59
2023/05/07 10:53:24;;;;;;;21.90;19.35;;;23.90;52.40;;;;;;5043270;28;20048;-61
2023/05/07 10:56:24;;;;;;;23.50;20.95;;;23.90;52.30;;;;;;5045030;28;20097;-60
2023/05/07 10:59:20;;;;;;;24.95;22.30;;;23.90;52.30;;;;;;5039886;28;20029;-61
2023/05/07 11:01:53;;;;;;;22.70;20.25;;;23.90;52.20;;;;;;5045816;28;20053;-61
2023/05/07 11:04:29;;;;;;;25.35;22.63;;;24.00;52.30;;;;;;5046537;28;20055;-60
2023/05/07 11:07:29;;;;;;;24.92;22.13;;;23.90;52.20;;;;;;5040192;28;20111;-58
2023/05/07 11:10:10;;;;;;;25.70;22.63;;;24.00;52.30;;;;;;5047530;28;20052;-63
2023/05/07 11:12:50;;;;;;;25.02;21.85;;;24.00;52.20;;;;;;5060716;28;20067;-60
2023/05/07 11:15:38;;;;;;;25.00;22.42;;;24.00;52.10;;;;;;5030600;28;20029;-60
2023/05/07 11:18:11;;;;;;;24.98;22.27;;;24.00;52.00;;;;;;5045779;28;20025;-58
2023/05/07 11:20:56;;;;;;;24.95;22.35;;;24.00;51.90;;;;;;5043971;28;20036;-62
2023/05/07 11:23:33;;;;;;;26.45;23.52;;;24.00;51.80;;;;;;5041984;28;21203;-58
2023/05/07 11:26:08;;;;;;;27.38;24.48;;;24.10;51.90;;;;;;5043623;28;20037;-56
2023/05/07 11:28:43;;;;;;;27.95;24.95;;;24.10;51.80;;;;;;5048668;28;20021;-60
2023/05/07 11:31:11;;;;;;;26.63;23.73;;;24.10;52.40;;;;;;5049964;28;20025;-61
2023/05/07 11:33:39;;;;;;;27.05;24.17;;;24.10;51.80;;;;;;5051175;28;20410;-65
2023/05/07 11:36:09;;;;;;;25.60;23.00;;;24.10;51.70;;;;;;5045489;28;20029;-63
2023/05/07 11:38:40;;;;;;;24.70;22.15;;;24.10;51.70;;;;;;5027091;28;20024;-60
2023/05/07 11:41:07;;;;;;;22.92;20.58;;;24.20;51.70;;;;;;5046015;28;20036;-59
2023/05/07 11:43:35;;;;;;;23.38;20.95;;;24.10;51.70;;;;;;5049646;28;20029;-60
2023/05/07 11:46:14;;;;;;;23.75;21.25;;;24.20;51.70;;;;;;5068916;28;20086;-56
2023/05/07 11:48:41;;;;;;;23.83;21.33;;;24.20;51.70;;;;;;5084869;28;20063;-61
2023/05/07 11:51:12;;;;;;;25.38;22.40;;;24.20;51.60;;;;;;5084805;28;20049;-59
2023/05/07 11:53:41;;;;;;;25.20;22.58;;;24.20;51.50;;;;;;5084741;28;20100;-60
2023/05/07 11:56:12;;;;;;;25.67;23.08;;;24.30;51.50;;;;;;5083209;28;21666;-59
2023/05/07 11:58:40;;;;;;;25.63;22.92;;;24.30;51.40;;;;;;5066877;28;20363;-62
2023/05/07 12:01:08;;;;;;;26.60;23.80;;;24.30;51.40;;;;;;5082133;28;20304;-61
2023/05/07 12:03:47;;;;;;;26.10;23.50;;;24.30;51.20;;;;;;5065201;28;20407;-58
2023/05/07 12:06:16;;;;;;;27.33;24.60;;;24.30;51.10;;;;;;5063604;28;20035;-62
2023/05/07 12:08:43;;;;;;;27.77;23.85;;;24.30;51.00;;;;;;5064227;28;20464;-62
2023/05/07 12:11:21;;;;;;;27.00;24.30;;;24.30;51.00;;;;;;5082859;28;20040;-61
2023/05/07 12:13:47;;;;;;;25.73;22.88;;;24.30;51.00;;;;;;5065252;28;20419;-63
2023/05/07 12:16:14;;;;;;;26.23;23.52;;;24.30;50.90;;;;;;5081674;28;20028;-61
2023/05/07 12:18:41;;;;;;;27.10;24.30;;;24.30;50.90;;;;;;5084451;28;20083;-61
2023/05/07 12:21:08;;;;;;;24.92;22.33;;;24.30;50.90;;;;;;5083416;28;20029;-63
2023/05/07 12:23:36;;;;;;;24.55;22.05;;;24.30;50.80;;;;;;5085302;28;20378;-62
2023/05/07 12:26:02;;;;;;;25.05;22.50;;;24.30;50.70;;;;;;5082981;28;20033;-64
2023/05/07 12:28:30;;;;;;;25.15;21.98;;;24.30;50.70;;;;;;5061942;28;20126;-63
2023/05/07 12:30:57;;;;;;;24.10;21.60;;;24.40;50.70;;;;;;5081375;28;20032;-65
2023/05/07 12:33:28;;;;;;;23.50;21.10;;;24.40;50.70;;;;;;5084234;28;20072;-65
2023/05/07 12:35:56;;;;;;;22.95;20.40;;;24.40;50.70;;;;;;5081657;28;20556;-63
2023/05/07 12:38:23;;;;;;;22.25;19.95;;;24.40;50.60;;;;;;5065035;28;20064;-64
2023/05/07 12:40:53;;;;;;;22.90;20.60;;;24.40;50.50;;;;;;5083883;28;20081;-63
2023/05/07 12:43:26;;;;;;;20.25;18.05;;;24.40;50.40;;;;;;5050208;28;20118;-62
2023/05/07 12:45:54;;;;;;;20.38;17.60;;;24.50;50.40;;;;;;5087928;28;20052;-60